createdAt,value
2017-07-29T00:02:03.119Z,5.50
2017-07-29T00:04:29.897Z,5.07
2017-07-29T00:06:56.299Z,6.57
2017-07-29T00:09:22.667Z,4.70
2017-07-29T00:11:49.899Z,5.50
2017-07-29T00:14:16.716Z,4.10
2017-07-29T00:16:42.979Z,5.37
2017-07-29T00:19:09.452Z,5.30
2017-07-29T00:21:36.616Z,5.50
2017-07-29T00:24:02.889Z,6.23
2017-07-29T00:26:29.260Z,5.90
2017-07-29T00:28:55.531Z,6.20
2017-07-29T00:31:22.270Z,5.17
2017-07-29T00:33:48.551Z,5.37
2017-07-29T00:36:14.817Z,5.83
2017-07-29T00:38:41.769Z,4.83
2017-07-29T00:41:08.751Z,5.60
2017-07-29T00:43:35.577Z,5.50
2017-07-29T00:46:02.266Z,5.80
2017-07-29T00:48:28.552Z,5.80
2017-07-29T00:50:54.835Z,4.80
2017-07-29T00:53:21.096Z,6.80
2017-07-29T00:55:48.015Z,6.33
2017-07-29T00:58:14.556Z,5.20
2017-07-29T01:00:41.546Z,6.50
2017-07-29T01:03:07.842Z,6.70
2017-07-29T01:05:34.656Z,7.20
2017-07-29T01:08:01.580Z,5.70
2017-07-29T01:10:27.843Z,5.60
2017-07-29T01:12:55.092Z,5.93
2017-07-29T01:15:21.840Z,6.63
2017-07-29T01:17:48.605Z,6.73
2017-07-29T01:20:14.944Z,5.37
2017-07-29T01:22:42.117Z,5.93
2017-07-29T01:25:10.696Z,7.43
2017-07-29T01:27:37.007Z,5.97
2017-07-29T01:30:03.316Z,5.87
2017-07-29T01:32:30.249Z,7.33
2017-07-29T01:34:58.016Z,5.50
2017-07-29T01:37:24.363Z,6.27
2017-07-29T01:39:50.648Z,6.77
2017-07-29T01:42:17.918Z,6.60
2017-07-29T01:44:44.445Z,7.00
2017-07-29T01:47:10.814Z,5.93
2017-07-29T01:49:37.112Z,6.73
2017-07-29T01:52:03.636Z,4.90
2017-07-29T01:54:30.651Z,7.93
2017-07-29T01:56:57.271Z,8.87
2017-07-29T01:59:24.195Z,6.33
2017-07-29T02:01:50.971Z,5.90
2017-07-29T02:04:18.497Z,6.60
2017-07-29T02:06:44.904Z,6.50
2017-07-29T02:09:11.256Z,5.67
2017-07-29T02:11:38.803Z,4.77
2017-07-29T02:14:20.992Z,5.90
2017-07-29T02:16:47.250Z,5.77
2017-07-29T02:19:13.492Z,6.97
2017-07-29T02:21:40.423Z,6.63
2017-07-29T02:24:08.689Z,7.50
2017-07-29T02:26:34.945Z,7.53
2017-07-29T02:29:01.224Z,7.10
2017-07-29T02:31:28.026Z,6.50
2017-07-29T02:33:55.044Z,7.27
2017-07-29T02:36:21.601Z,6.23
2017-07-29T02:38:48.222Z,7.40
2017-07-29T02:41:14.543Z,6.60
2017-07-29T02:43:41.665Z,6.73
2017-07-29T02:46:08.542Z,7.10
2017-07-29T02:48:35.249Z,6.67
2017-07-29T02:51:01.479Z,6.10
2017-07-29T02:53:28.756Z,6.37
2017-07-29T02:55:55.024Z,6.40
2017-07-29T02:58:22.019Z,5.97
2017-07-29T03:00:49.301Z,5.40
2017-07-29T03:03:15.555Z,6.67
2017-07-29T03:05:42.017Z,7.45
2017-07-29T03:08:09.303Z,6.30
2017-07-29T03:10:35.586Z,6.40
2017-07-29T03:13:01.828Z,7.90
2017-07-29T03:15:28.702Z,5.27
2017-07-29T03:17:55.435Z,8.60
2017-07-29T03:20:22.588Z,7.00
2017-07-29T03:22:48.895Z,8.35
2017-07-29T03:25:15.156Z,7.60
2017-07-29T03:27:41.437Z,6.13
2017-07-29T03:30:08.604Z,7.30
2017-07-29T03:32:35.924Z,6.85
2017-07-29T03:35:02.941Z,6.18
2017-07-29T03:37:29.197Z,6.20
2017-07-29T03:39:55.629Z,6.40
2017-07-29T03:42:21.890Z,5.57
2017-07-29T03:44:48.517Z,6.40
2017-07-29T03:47:14.947Z,6.27
2017-07-29T03:49:41.946Z,6.33
2017-07-29T03:52:08.211Z,6.97
2017-07-29T03:54:36.168Z,4.90
2017-07-29T03:57:03.208Z,7.47
2017-07-29T03:59:31.141Z,6.90
2017-07-29T04:01:57.931Z,7.50
2017-07-29T04:04:31.120Z,6.68
2017-07-29T04:06:57.376Z,6.57
2017-07-29T04:09:23.656Z,6.47
2017-07-29T04:11:50.903Z,6.78
2017-07-29T04:14:17.221Z,6.30
2017-07-29T04:16:44.542Z,8.03
2017-07-29T04:19:11.379Z,7.28
2017-07-29T04:21:37.692Z,7.22
2017-07-29T04:24:04.638Z,7.20
2017-07-29T04:26:31.568Z,6.70
2017-07-29T04:28:57.831Z,7.00
2017-07-29T04:31:24.078Z,7.07
2017-07-29T04:33:50.338Z,7.17
2017-07-29T04:36:16.586Z,6.85
2017-07-29T04:38:42.980Z,6.93
2017-07-29T04:41:10.521Z,8.40
2017-07-29T04:43:36.864Z,7.77
2017-07-29T04:46:03.618Z,6.27
2017-07-29T04:48:29.890Z,5.50
2017-07-29T04:50:56.654Z,5.90
2017-07-29T04:53:22.907Z,5.80
2017-07-29T04:55:49.182Z,6.40
2017-07-29T04:58:15.983Z,6.13
2017-07-29T05:00:42.256Z,6.43
2017-07-29T05:03:08.934Z,6.40
2017-07-29T05:05:35.809Z,6.63
2017-07-29T05:08:02.249Z,6.70
2017-07-29T05:10:29.298Z,5.90
2017-07-29T05:12:55.878Z,6.03
2017-07-29T05:15:23.153Z,6.27
2017-07-29T05:17:49.441Z,7.33
2017-07-29T05:20:15.913Z,6.77
2017-07-29T05:22:42.432Z,7.87
2017-07-29T05:25:08.690Z,6.47
2017-07-29T05:27:35.613Z,8.30
2017-07-29T05:30:02.554Z,6.97
2017-07-29T05:32:28.874Z,7.00
2017-07-29T05:34:55.145Z,6.23
2017-07-29T05:37:21.461Z,6.50
2017-07-29T05:39:47.707Z,6.30
2017-07-29T05:42:14.503Z,5.87
2017-07-29T05:44:41.426Z,6.90
2017-07-29T05:47:07.676Z,6.43
2017-07-29T05:49:33.947Z,6.30
2017-07-29T05:52:00.486Z,7.00
2017-07-29T05:54:26.802Z,6.27
2017-07-29T05:56:53.228Z,6.30
2017-07-29T05:59:19.478Z,6.00
2017-07-29T06:01:46.863Z,6.87
2017-07-29T06:04:13.120Z,7.60
2017-07-29T06:06:40.448Z,6.40
2017-07-29T06:09:07.402Z,5.50
2017-07-29T06:11:34.707Z,5.90
2017-07-29T06:14:01.802Z,6.20
2017-07-29T06:16:28.366Z,4.73
2017-07-29T06:18:54.622Z,5.30
2017-07-29T06:21:20.974Z,4.60
2017-07-29T06:23:48.504Z,5.17
2017-07-29T06:26:14.764Z,4.10
2017-07-29T06:28:41.632Z,5.17
2017-07-29T06:31:08.138Z,4.63
2017-07-29T06:33:34.406Z,5.20
2017-07-29T06:36:00.672Z,4.80
2017-07-29T06:38:26.964Z,4.23
2017-07-29T06:40:53.609Z,4.03
2017-07-29T06:43:20.683Z,4.30
2017-07-29T06:45:47.220Z,4.67
2017-07-29T06:48:13.515Z,4.40
2017-07-29T06:50:39.797Z,3.97
2017-07-29T06:53:06.799Z,4.67
2017-07-29T06:55:33.085Z,4.17
2017-07-29T06:57:59.340Z,3.70
2017-07-29T07:00:26.179Z,3.67
2017-07-29T07:02:52.415Z,4.03
2017-07-29T07:05:19.213Z,4.00
2017-07-29T07:07:46.234Z,4.13
2017-07-29T07:10:13.209Z,4.40
2017-07-29T07:12:40.267Z,4.20
2017-07-29T07:15:06.653Z,4.90
2017-07-29T07:17:33.536Z,4.53
2017-07-29T07:20:00.584Z,3.80
2017-07-29T07:22:28.039Z,5.10
2017-07-29T07:24:55.710Z,4.37
2017-07-29T07:27:22.956Z,3.73
2017-07-29T07:29:50.285Z,3.97
2017-07-29T07:32:17.666Z,3.90
2017-07-29T07:34:43.939Z,3.60
2017-07-29T07:37:10.854Z,4.30
2017-07-29T07:39:37.137Z,4.00
2017-07-29T07:42:04.438Z,3.93
2017-07-29T07:44:30.829Z,4.07
2017-07-29T07:46:57.113Z,3.77
2017-07-29T07:49:23.424Z,4.17
2017-07-29T07:51:50.285Z,3.93
2017-07-29T07:54:17.524Z,4.57
2017-07-29T07:56:44.237Z,4.73
2017-07-29T07:59:11.260Z,4.23
2017-07-29T08:01:37.508Z,4.30
2017-07-29T08:04:05.300Z,4.43
2017-07-29T08:06:31.582Z,4.20
2017-07-29T08:08:57.904Z,3.93
2017-07-29T08:11:24.165Z,4.80
2017-07-29T08:13:51.436Z,4.23
2017-07-29T08:16:18.234Z,4.70
2017-07-29T08:18:44.519Z,4.73
2017-07-29T08:21:10.818Z,3.93
2017-07-29T08:23:37.824Z,4.40
2017-07-29T08:26:05.035Z,3.80
2017-07-29T08:28:31.337Z,4.17
2017-07-29T08:30:58.835Z,4.20
2017-07-29T08:33:25.909Z,4.20
2017-07-29T08:35:52.173Z,3.80
2017-07-29T08:38:18.503Z,4.40
2017-07-29T08:40:45.555Z,4.27
2017-07-29T08:43:12.860Z,3.70
2017-07-29T08:45:39.169Z,3.50
2017-07-29T08:48:07.083Z,4.00
2017-07-29T08:50:33.356Z,4.30
2017-07-29T08:52:59.615Z,4.33
2017-07-29T08:55:25.900Z,4.10
2017-07-29T08:57:52.167Z,4.07
2017-07-29T09:00:19.028Z,3.70
2017-07-29T09:02:45.749Z,3.80
2017-07-29T09:05:12.038Z,3.90
2017-07-29T09:07:38.372Z,3.63
2017-07-29T09:10:04.901Z,4.20
2017-07-29T09:12:31.989Z,5.10
2017-07-29T09:14:58.639Z,3.60
2017-07-29T09:17:24.902Z,4.07
2017-07-29T09:19:51.298Z,4.30
2017-07-29T09:22:17.611Z,4.10
2017-07-29T09:24:43.895Z,4.37
2017-07-29T09:27:11.800Z,4.63
2017-07-29T09:29:38.356Z,4.00
2017-07-29T09:32:04.721Z,4.10
2017-07-29T09:34:32.150Z,4.57
2017-07-29T09:36:59.172Z,4.17
2017-07-29T09:39:26.035Z,4.13
2017-07-29T09:41:52.491Z,3.80
2017-07-29T09:44:18.767Z,5.07
2017-07-29T09:46:45.764Z,4.50
2017-07-29T09:49:12.855Z,4.70
2017-07-29T09:51:39.121Z,4.63
2017-07-29T09:54:05.501Z,5.37
2017-07-29T09:56:31.767Z,5.70
2017-07-29T09:58:58.259Z,4.70
2017-07-29T10:01:26.268Z,5.30
2017-07-29T10:03:53.037Z,4.83
2017-07-29T10:06:19.883Z,4.90
2017-07-29T10:08:47.150Z,4.97
2017-07-29T10:11:14.313Z,5.37
2017-07-29T10:13:41.908Z,5.37
2017-07-29T10:16:08.653Z,4.10
2017-07-29T10:18:34.915Z,5.10
2017-07-29T10:21:01.344Z,4.30
2017-07-29T10:23:27.598Z,4.40
2017-07-29T10:25:55.954Z,4.30
2017-07-29T10:28:23.122Z,4.47
2017-07-29T10:30:50.126Z,4.27
2017-07-29T10:33:16.408Z,4.40
2017-07-29T10:35:44.385Z,4.27
2017-07-29T10:38:10.879Z,4.70
2017-07-29T10:40:37.149Z,4.17
2017-07-29T10:43:04.248Z,4.00
2017-07-29T10:45:30.513Z,4.37
2017-07-29T10:47:58.157Z,3.90
2017-07-29T10:50:24.446Z,4.97
2017-07-29T10:52:50.707Z,3.17
2017-07-29T10:55:16.943Z,3.60
2017-07-29T10:57:43.212Z,4.80
2017-07-29T11:00:09.545Z,4.00
2017-07-29T11:02:36.253Z,4.27
2017-07-29T11:05:03.368Z,4.00
2017-07-29T11:07:31.229Z,4.10
2017-07-29T11:09:57.584Z,3.93
2017-07-29T11:12:23.962Z,4.40
2017-07-29T11:14:50.299Z,4.50
2017-07-29T11:17:16.562Z,4.90
2017-07-29T11:19:42.849Z,4.10
2017-07-29T11:22:09.110Z,3.77
2017-07-29T11:24:35.804Z,4.30
2017-07-29T11:27:03.566Z,4.30
2017-07-29T11:29:29.903Z,3.60
2017-07-29T11:31:56.534Z,4.37
2017-07-29T11:34:22.901Z,3.47
2017-07-29T11:36:49.175Z,4.17
2017-07-29T11:39:16.332Z,4.10
2017-07-29T11:41:43.595Z,4.60
2017-07-29T11:44:09.843Z,4.10
2017-07-29T11:46:36.119Z,3.83
2017-07-29T11:49:03.350Z,4.10
2017-07-29T11:51:30.617Z,3.73
2017-07-29T11:53:56.897Z,4.30
2017-07-29T11:56:23.221Z,4.83
2017-07-29T11:58:50.471Z,4.00
2017-07-29T12:01:16.740Z,4.03
2017-07-29T12:03:43.037Z,4.20
2017-07-29T12:06:09.924Z,4.80
2017-07-29T12:08:36.943Z,3.70
2017-07-29T12:11:05.012Z,4.03
2017-07-29T12:13:44.487Z,3.87
2017-07-29T12:16:10.749Z,4.57
2017-07-29T12:18:37.811Z,4.70
2017-07-29T12:21:04.139Z,4.27
2017-07-29T12:23:30.840Z,4.40
2017-07-29T12:25:57.147Z,4.17
2017-07-29T12:28:23.396Z,4.57
2017-07-29T12:30:49.684Z,4.57
2017-07-29T12:33:16.265Z,3.90
2017-07-29T12:35:42.655Z,4.33
2017-07-29T12:38:08.969Z,4.40
2017-07-29T12:40:35.465Z,4.17
2017-07-29T12:43:03.464Z,4.67
2017-07-29T12:45:31.628Z,3.73
2017-07-29T12:47:58.673Z,3.80
2017-07-29T12:50:24.951Z,4.37
2017-07-29T12:52:51.485Z,5.00
2017-07-29T12:55:18.352Z,4.50
2017-07-29T12:57:44.968Z,4.30
2017-07-29T13:00:11.962Z,4.63
2017-07-29T13:02:39.956Z,3.77
2017-07-29T13:05:06.752Z,3.63
2017-07-29T13:07:33.102Z,4.23
2017-07-29T13:09:59.612Z,3.47
2017-07-29T13:12:26.035Z,3.87
2017-07-29T13:14:52.313Z,4.57
2017-07-29T13:17:18.853Z,5.10
2017-07-29T13:19:45.755Z,3.97
2017-07-29T13:22:12.759Z,4.10
2017-07-29T13:24:39.039Z,4.70
2017-07-29T13:27:07.028Z,4.10
2017-07-29T13:29:33.356Z,4.83
2017-07-29T13:32:01.119Z,3.20
2017-07-29T13:34:28.395Z,3.90
2017-07-29T13:36:55.120Z,4.60
2017-07-29T13:39:22.224Z,4.57
2017-07-29T13:41:48.516Z,4.40
2017-07-29T13:44:15.531Z,4.13
2017-07-29T13:46:41.837Z,3.87
2017-07-29T13:49:08.885Z,3.97
2017-07-29T13:51:35.811Z,4.50
2017-07-29T13:54:02.135Z,4.20
2017-07-29T13:56:28.526Z,3.83
2017-07-29T13:58:54.815Z,4.23
2017-07-29T14:01:22.059Z,4.23
2017-07-29T14:03:48.341Z,4.20
2017-07-29T14:06:14.678Z,3.80
2017-07-29T14:08:41.000Z,3.90
2017-07-29T14:11:07.586Z,4.20
2017-07-29T14:13:34.511Z,3.60
2017-07-29T14:16:00.764Z,4.03
2017-07-29T14:18:27.804Z,4.93
2017-07-29T14:20:55.021Z,4.60
2017-07-29T14:23:21.521Z,3.83
2017-07-29T14:25:49.793Z,4.00
2017-07-29T14:28:16.838Z,4.00
2017-07-29T14:30:44.544Z,3.80
2017-07-29T14:33:12.286Z,4.10
2017-07-29T14:35:39.560Z,4.57
2017-07-29T14:38:06.351Z,3.90
2017-07-29T14:40:33.362Z,3.90
2017-07-29T14:42:59.645Z,4.50
2017-07-29T14:45:26.875Z,3.80
2017-07-29T14:47:53.687Z,3.93
2017-07-29T14:50:20.216Z,4.13
2017-07-29T14:52:47.226Z,4.20
2017-07-29T14:55:13.490Z,4.13
2017-07-29T14:57:39.773Z,4.13
2017-07-29T15:00:06.792Z,3.80
2017-07-29T15:02:33.082Z,4.10
2017-07-29T15:05:00.459Z,4.10
2017-07-29T15:07:27.413Z,3.97
2017-07-29T15:09:53.684Z,4.47
2017-07-29T15:12:19.936Z,3.90
2017-07-29T15:14:47.460Z,3.60
2017-07-29T15:17:14.696Z,3.87
2017-07-29T15:19:40.975Z,3.83
2017-07-29T15:22:07.230Z,3.83
2017-07-29T15:24:34.359Z,4.20
2017-07-29T15:27:01.126Z,3.90
2017-07-29T15:29:27.386Z,3.70
2017-07-29T15:31:54.380Z,3.77
2017-07-29T15:34:21.232Z,3.83
2017-07-29T15:36:47.781Z,4.40
2017-07-29T15:39:16.116Z,4.10
2017-07-29T15:41:43.315Z,4.83
2017-07-29T15:44:10.576Z,4.37
2017-07-29T15:46:38.119Z,4.33
2017-07-29T15:49:04.407Z,4.17
2017-07-29T15:51:31.303Z,4.00
2017-07-29T15:53:58.525Z,3.67
2017-07-29T15:56:24.789Z,4.50
2017-07-29T15:58:52.128Z,4.80
2017-07-29T16:01:18.430Z,4.43
2017-07-29T16:03:44.700Z,4.03
2017-07-29T16:06:11.108Z,4.80
2017-07-29T16:08:38.026Z,4.63
2017-07-29T16:11:04.404Z,4.37
2017-07-29T16:13:31.314Z,3.80
2017-07-29T16:15:57.583Z,3.80
2017-07-29T16:18:24.604Z,4.10
2017-07-29T16:20:51.430Z,5.30
2017-07-29T16:23:17.712Z,5.00
2017-07-29T16:25:43.999Z,3.90
2017-07-29T16:28:10.865Z,4.00
2017-07-29T16:30:38.240Z,3.90
2017-07-29T16:33:04.686Z,4.13
2017-07-29T16:35:31.005Z,3.70
2017-07-29T16:37:58.082Z,4.40
2017-07-29T16:40:24.949Z,4.00
2017-07-29T16:42:51.802Z,3.77
2017-07-29T16:45:18.088Z,3.80
2017-07-29T16:47:44.662Z,4.07
2017-07-29T16:50:11.655Z,4.63
2017-07-29T16:52:37.925Z,4.70
2017-07-29T16:55:04.400Z,4.00
2017-07-29T16:57:32.484Z,4.87
2017-07-29T17:00:00.051Z,4.03
2017-07-29T17:02:26.354Z,4.97
2017-07-29T17:04:54.691Z,4.17
2017-07-29T17:23:37.196Z,5.07
2017-07-29T17:26:04.258Z,5.03
2017-07-29T17:28:31.316Z,6.00
2017-07-29T17:30:57.586Z,4.20
2017-07-29T17:33:25.262Z,4.20
2017-07-29T17:35:52.541Z,4.10
2017-07-29T17:38:18.782Z,3.70
2017-07-29T17:40:45.551Z,4.20
2017-07-29T17:43:12.798Z,4.23
2017-07-29T17:45:39.738Z,4.40
2017-07-29T17:48:07.004Z,4.10
2017-07-29T17:50:34.070Z,4.67
2017-07-29T17:53:00.345Z,5.43
2017-07-29T17:55:26.653Z,4.93
2017-07-29T17:57:53.479Z,4.30
2017-07-29T18:00:21.088Z,4.60
2017-07-29T18:02:48.029Z,5.27
2017-07-29T18:05:14.616Z,4.60
2017-07-29T18:07:41.923Z,5.27
2017-07-29T18:10:08.567Z,4.77
2017-07-29T18:12:36.208Z,4.20
2017-07-29T18:15:03.446Z,4.40
2017-07-29T18:17:29.905Z,4.87
2017-07-29T18:19:56.784Z,4.33
2017-07-29T18:22:24.729Z,5.20
2017-07-29T18:24:51.691Z,4.63
2017-07-29T18:27:19.364Z,5.00
2017-07-29T18:29:46.180Z,5.67
2017-07-29T18:32:12.972Z,4.70
2017-07-29T18:34:39.227Z,4.80
2017-07-29T18:37:05.483Z,6.47
2017-07-29T18:39:32.487Z,5.87
2017-07-29T18:41:59.897Z,5.50
2017-07-29T18:44:27.055Z,6.00
2017-07-29T18:46:53.326Z,6.17
2017-07-29T18:49:20.127Z,6.17
2017-07-29T18:51:46.518Z,5.60
2017-07-29T18:54:12.772Z,5.57
2017-07-29T18:56:40.375Z,5.57
2017-07-29T18:59:07.642Z,5.57
2017-07-29T19:01:34.552Z,6.53
2017-07-29T19:04:01.270Z,6.43
2017-07-29T19:06:29.296Z,6.53
2017-07-29T19:08:56.112Z,5.90
2017-07-29T19:11:23.313Z,6.43
2017-07-29T19:13:51.022Z,6.10
2017-07-29T19:16:17.288Z,6.60
2017-07-29T19:18:44.513Z,5.70
2017-07-29T19:21:11.634Z,6.63
2017-07-29T19:23:38.665Z,6.67
2017-07-29T19:26:05.462Z,5.83
2017-07-29T19:28:32.280Z,5.90
2017-07-29T19:30:58.571Z,5.77
2017-07-29T19:33:24.918Z,5.13
2017-07-29T19:35:51.270Z,6.87
2017-07-29T19:38:18.524Z,5.40
2017-07-29T19:40:45.683Z,6.00
2017-07-29T19:43:12.330Z,7.60
2017-07-29T19:45:40.002Z,5.27
2017-07-29T19:48:06.992Z,5.80
2017-07-29T19:50:34.264Z,5.70
2017-07-29T19:53:00.540Z,5.67
2017-07-29T19:55:26.783Z,6.27
2017-07-29T19:57:53.074Z,6.07
2017-07-29T20:00:20.290Z,6.17
2017-07-29T20:02:48.007Z,6.20
2017-07-29T20:05:16.284Z,4.80
2017-07-29T20:07:42.540Z,4.90
2017-07-29T20:10:09.794Z,6.53
2017-07-29T20:12:36.053Z,6.80
2017-07-29T20:15:02.323Z,6.73
2017-07-29T20:17:29.060Z,6.20
2017-07-29T20:19:56.816Z,5.27
2017-07-29T20:22:23.110Z,6.50
2017-07-29T20:24:50.339Z,6.17
2017-07-29T20:27:16.933Z,6.73
2017-07-29T20:29:44.994Z,5.50
2017-07-29T20:32:12.003Z,6.90
2017-07-29T20:34:39.753Z,5.90
2017-07-29T20:37:06.546Z,6.33
2017-07-29T20:39:33.898Z,6.33
2017-07-29T20:42:00.163Z,9.40
2017-07-29T20:44:27.090Z,7.17
2017-07-29T20:46:53.586Z,6.23
2017-07-29T20:49:20.925Z,6.63
2017-07-29T20:51:47.347Z,5.70
2017-07-29T20:54:14.995Z,6.33
2017-07-29T20:56:42.049Z,6.17
2017-07-29T20:59:09.066Z,6.20
2017-07-29T21:01:35.873Z,5.77
2017-07-29T21:04:03.092Z,6.03
2017-07-29T21:06:30.096Z,6.77
2017-07-29T21:08:56.874Z,5.10
2017-07-29T21:11:23.874Z,6.70
2017-07-29T21:13:51.284Z,6.73
2017-07-29T21:16:18.304Z,6.60
2017-07-29T21:18:44.585Z,6.73
2017-07-29T21:21:11.846Z,6.43
2017-07-29T21:23:38.101Z,6.33
2017-07-29T21:26:05.369Z,6.60
2017-07-29T21:28:31.649Z,5.37
2017-07-29T21:31:05.125Z,6.13
2017-07-29T21:33:31.411Z,6.77
2017-07-29T21:35:58.842Z,5.80
2017-07-29T21:38:26.661Z,6.80
2017-07-29T21:40:54.309Z,5.80
2017-07-29T21:43:21.680Z,6.20
2017-07-29T21:45:47.973Z,6.50
2017-07-29T21:48:15.191Z,5.80
2017-07-29T21:50:41.547Z,6.60
2017-07-29T21:53:07.829Z,6.13
2017-07-29T21:55:35.431Z,6.07
2017-07-29T21:58:01.891Z,6.17
2017-07-29T22:00:28.928Z,5.50
2017-07-29T22:02:55.814Z,6.13
2017-07-29T22:05:22.099Z,6.23
2017-07-29T22:07:48.585Z,7.10
2017-07-29T22:10:15.690Z,6.30
2017-07-29T22:12:42.754Z,7.07
2017-07-29T22:15:09.825Z,6.40
2017-07-29T22:17:36.270Z,8.97
2017-07-29T22:20:03.039Z,7.03
2017-07-29T22:22:29.274Z,5.80
2017-07-29T22:24:55.558Z,6.83
2017-07-29T22:27:22.197Z,6.40
2017-07-29T22:29:48.543Z,6.73
2017-07-29T22:32:14.797Z,5.27
2017-07-29T22:34:43.235Z,6.77
2017-07-29T22:37:09.778Z,6.70
2017-07-29T22:39:36.665Z,5.70
2017-07-29T22:42:03.773Z,7.40
2017-07-29T22:44:30.709Z,6.60
2017-07-29T22:46:57.225Z,7.70
2017-07-29T22:49:24.338Z,7.27
2017-07-29T22:51:50.868Z,6.77
2017-07-29T22:54:18.179Z,6.57
2017-07-29T22:56:45.423Z,6.37
2017-07-29T22:59:12.653Z,5.87
2017-07-29T23:01:39.431Z,6.27
2017-07-29T23:04:06.159Z,6.40
2017-07-29T23:06:32.414Z,6.30
2017-07-29T23:08:59.677Z,7.03
2017-07-29T23:11:26.001Z,6.50
2017-07-29T23:13:52.892Z,6.83
2017-07-29T23:16:20.140Z,7.10
2017-07-29T23:18:46.663Z,6.27
2017-07-29T23:21:14.026Z,7.93
2017-07-29T23:23:41.388Z,6.60
2017-07-29T23:26:07.667Z,6.20
2017-07-29T23:28:34.921Z,6.10
2017-07-29T23:31:01.220Z,6.87
2017-07-29T23:33:28.076Z,7.50
2017-07-29T23:35:54.626Z,7.80
2017-07-29T23:38:21.688Z,7.47
2017-07-29T23:40:48.612Z,6.93
2017-07-29T23:43:14.872Z,7.20
2017-07-29T23:45:41.144Z,5.90
2017-07-29T23:48:07.782Z,6.40
2017-07-29T23:50:34.045Z,5.63
2017-07-29T23:53:00.326Z,6.30
2017-07-29T23:55:27.120Z,6.23
2017-07-29T23:57:54.384Z,6.23
